Time;durP1;ratioP1;P1;durP2;ratioP2;P2;SDS_P1;SDS_P2;PMS_P1;PMS_P2;Temp;Humidity;BMP_temperature;BMP_pressure;BME280_temperature;BME280_humidity;BME280_pressure;Samples;Min_cycle;Max_cycle;Signal;HPM_P1;HPM_P2
2022/11/22 00:00:24;;;;;;;12.43;9.25;;;;;;;;;;5090393;28;20036;-78
2022/11/22 00:02:50;;;;;;;20.08;13.27;;;;;;;;;;5073506;28;20145;-77
2022/11/22 00:05:18;;;;;;;24.70;15.98;;;;;;;;;;5080297;28;20068;-77
2022/11/22 00:07:47;;;;;;;13.93;8.98;;;;;;;;;;5089667;28;20097;-78
2022/11/22 00:10:16;;;;;;;17.98;11.10;;;;;;;;;;5090285;28;20479;-77
2022/11/22 00:12:43;;;;;;;16.70;11.68;;;;;;;;;;5054699;28;20039;-77
2022/11/22 00:15:12;;;;;;;34.42;21.77;;;;;;;;;;5090285;28;20030;-78
2022/11/22 00:17:38;;;;;;;28.63;15.63;;;;;;;;;;5089933;28;20036;-77
2022/11/22 00:20:06;;;;;;;21.65;12.73;;;;;;;;;;5072273;28;20031;-77
2022/11/22 00:22:32;;;;;;;18.42;11.32;;;;;;;;;;5072372;28;20040;-75
2022/11/22 00:25:00;;;;;;;14.75;10.10;;;;;;;;;;5090957;28;20036;-78
2022/11/22 00:27:27;;;;;;;13.80;9.75;;;;;;;;;;5066449;28;20039;-78
2022/11/22 00:29:53;;;;;;;34.40;20.88;;;;;;;;;;5087422;28;20032;-76
2022/11/22 00:32:21;;;;;;;34.15;19.17;;;;;;;;;;5071438;28;20602;-77
2022/11/22 00:34:48;;;;;;;32.10;18.95;;;;;;;;;;5089331;28;20036;-77
2022/11/22 00:37:14;;;;;;;20.27;12.20;;;;;;;;;;5089217;28;20454;-77
2022/11/22 00:39:44;;;;;;;20.40;12.88;;;;;;;;;;5070681;28;20491;-77
2022/11/22 00:42:10;;;;;;;36.85;20.70;;;;;;;;;;5057293;28;20043;-77
2022/11/22 00:44:39;;;;;;;36.38;23.92;;;;;;;;;;5071834;28;20024;-77
2022/11/22 00:47:05;;;;;;;31.45;16.23;;;;;;;;;;5075389;28;20046;-79
2022/11/22 00:49:31;;;;;;;22.92;14.25;;;;;;;;;;5090027;28;20140;-80
2022/11/22 00:51:58;;;;;;;37.15;21.10;;;;;;;;;;5090061;28;20028;-76
2022/11/22 00:54:26;;;;;;;16.00;10.85;;;;;;;;;;5065792;28;20424;-77
2022/11/22 00:56:52;;;;;;;33.88;16.45;;;;;;;;;;5082295;28;20074;-77
2022/11/22 00:59:19;;;;;;;13.60;9.63;;;;;;;;;;5092165;28;20031;-77
2022/11/22 01:01:45;;;;;;;34.13;16.00;;;;;;;;;;5094419;28;20036;-77
2022/11/22 01:04:11;;;;;;;33.63;18.60;;;;;;;;;;5095811;28;20035;-77
2022/11/22 01:06:38;;;;;;;15.98;10.60;;;;;;;;;;5080688;28;20127;-77
2022/11/22 01:09:06;;;;;;;19.30;12.30;;;;;;;;;;5099016;28;20411;-77
2022/11/22 01:11:34;;;;;;;6.07;5.57;;;;;;;;;;5080797;28;20042;-77
2022/11/22 01:14:02;;;;;;;20.63;11.57;;;;;;;;;;5079609;28;20585;-77
2022/11/22 01:16:30;;;;;;;36.97;21.38;;;;;;;;;;5098949;28;20066;-77
2022/11/22 01:18:56;;;;;;;20.02;13.13;;;;;;;;;;5098744;28;20032;-77
2022/11/22 01:21:24;;;;;;;35.75;21.35;;;;;;;;;;5072283;28;20107;-77
2022/11/22 01:23:54;;;;;;;32.22;18.05;;;;;;;;;;5088973;28;20028;-78
2022/11/22 01:26:22;;;;;;;19.50;11.90;;;;;;;;;;5089194;28;20047;-76
2022/11/22 01:28:48;;;;;;;37.78;23.20;;;;;;;;;;5089214;28;20040;-76
2022/11/22 01:31:17;;;;;;;24.80;13.45;;;;;;;;;;5103989;28;20039;-77
2022/11/22 01:33:42;;;;;;;20.00;10.35;;;;;;;;;;5089143;28;20028;-78
2022/11/22 01:36:09;;;;;;;32.53;17.60;;;;;;;;;;5089010;28;20058;-78
2022/11/22 01:38:36;;;;;;;30.17;15.75;;;;;;;;;;5088924;28;20036;-77
2022/11/22 01:41:02;;;;;;;29.17;15.45;;;;;;;;;;5062725;28;20593;-76
2022/11/22 01:43:29;;;;;;;40.30;20.83;;;;;;;;;;5082899;28;20097;-77
2022/11/22 01:45:58;;;;;;;31.17;15.02;;;;;;;;;;5077521;28;20398;-77
2022/11/22 01:48:31;;;;;;;27.27;14.70;;;;;;;;;;5063794;28;20039;-78
2022/11/22 01:51:01;;;;;;;38.63;21.08;;;;;;;;;;5088352;28;20495;-78
2022/11/22 01:53:29;;;;;;;25.17;14.43;;;;;;;;;;5070750;28;20039;-79
2022/11/22 01:55:57;;;;;;;27.45;15.95;;;;;;;;;;5053866;28;20865;-79
2022/11/22 01:58:25;;;;;;;35.30;20.90;;;;;;;;;;5071130;28;20054;-78
2022/11/22 02:00:51;;;;;;;23.10;12.20;;;;;;;;;;5088723;28;20123;-79
2022/11/22 02:03:18;;;;;;;29.42;16.33;;;;;;;;;;5070929;28;20483;-78
2022/11/22 02:05:46;;;;;;;32.03;18.50;;;;;;;;;;5070310;28;20036;-78
2022/11/22 02:08:17;;;;;;;32.70;19.25;;;;;;;;;;5088629;28;20114;-78
2022/11/22 02:10:45;;;;;;;25.17;12.55;;;;;;;;;;5070917;28;20073;-79
2022/11/22 02:13:13;;;;;;;22.30;12.55;;;;;;;;;;5056059;28;20472;-78
2022/11/22 02:15:59;;;;;;;32.03;19.33;;;;;;;;;;5076713;28;20135;-79
2022/11/22 02:18:28;;;;;;;37.95;20.08;;;;;;;;;;5066398;28;20078;-78
2022/11/22 02:20:57;;;;;;;22.13;12.00;;;;;;;;;;5068487;28;20122;-79
2022/11/22 02:23:25;;;;;;;20.67;12.40;;;;;;;;;;5075061;28;20039;-78
2022/11/22 02:25:54;;;;;;;33.35;17.65;;;;;;;;;;5057386;28;20048;-78
2022/11/22 02:28:22;;;;;;;27.65;12.95;;;;;;;;;;5092012;28;20048;-78
2022/11/22 02:30:50;;;;;;;18.40;11.88;;;;;;;;;;5073606;28;20119;-78
2022/11/22 02:33:18;;;;;;;26.88;13.23;;;;;;;;;;5092110;28;20468;-78
2022/11/22 02:35:44;;;;;;;37.25;17.38;;;;;;;;;;5091282;28;20503;-76
2022/11/22 02:38:11;;;;;;;21.15;10.20;;;;;;;;;;5074081;28;20089;-78
2022/11/22 02:40:41;;;;;;;24.58;13.38;;;;;;;;;;5092171;28;20028;-80
2022/11/22 02:43:14;;;;;;;34.75;19.52;;;;;;;;;;5063286;28;20032;-79
2022/11/22 02:45:42;;;;;;;21.38;11.60;;;;;;;;;;5090375;28;20024;-78
2022/11/22 02:48:10;;;;;;;21.75;12.20;;;;;;;;;;5092259;28;20111;-78
2022/11/22 02:50:38;;;;;;;29.80;16.90;;;;;;;;;;5091689;28;20036;-76
2022/11/22 02:53:08;;;;;;;37.45;19.33;;;;;;;;;;5047748;28;20527;-76
2022/11/22 02:55:36;;;;;;;25.60;15.43;;;;;;;;;;5069922;28;20036;-76
2022/11/22 02:58:04;;;;;;;23.23;13.90;;;;;;;;;;5091601;28;20141;-76
2022/11/22 03:00:36;;;;;;;24.25;14.32;;;;;;;;;;5089705;28;20058;-78
2022/11/22 03:03:03;;;;;;;22.00;10.52;;;;;;;;;;5063159;28;20517;-77
2022/11/22 03:05:29;;;;;;;37.42;22.75;;;;;;;;;;5073304;28;20118;-77
2022/11/22 03:07:58;;;;;;;28.25;14.75;;;;;;;;;;5053566;28;20033;-76
2022/11/22 03:10:24;;;;;;;31.20;18.05;;;;;;;;;;5080398;28;20047;-76
2022/11/22 03:12:50;;;;;;;18.08;12.15;;;;;;;;;;5089125;28;20020;-77
2022/11/22 03:15:16;;;;;;;34.67;19.83;;;;;;;;;;5091559;28;20043;-76
2022/11/22 03:17:44;;;;;;;17.55;10.88;;;;;;;;;;5089709;28;20050;-77
2022/11/22 03:20:11;;;;;;;34.28;20.05;;;;;;;;;;5062454;28;20021;-77
2022/11/22 03:22:39;;;;;;;12.50;9.43;;;;;;;;;;5067515;28;20209;-76
2022/11/22 03:25:08;;;;;;;29.63;17.45;;;;;;;;;;5056015;28;20028;-76
2022/11/22 03:27:35;;;;;;;19.52;10.80;;;;;;;;;;5091057;28;20089;-77
2022/11/22 03:30:05;;;;;;;23.42;13.27;;;;;;;;;;5072569;28;20047;-76
2022/11/22 03:32:30;;;;;;;20.70;12.45;;;;;;;;;;5090699;28;20040;-77
2022/11/22 03:34:56;;;;;;;23.63;12.00;;;;;;;;;;5090027;28;20563;-77
2022/11/22 03:37:26;;;;;;;23.30;12.10;;;;;;;;;;5076504;28;20059;-77
2022/11/22 03:39:52;;;;;;;23.10;14.23;;;;;;;;;;5059888;28;20510;-76
2022/11/22 03:42:18;;;;;;;20.63;12.32;;;;;;;;;;5052538;28;20045;-76
2022/11/22 03:44:48;;;;;;;30.38;18.20;;;;;;;;;;5058677;28;20035;-77
2022/11/22 03:47:15;;;;;;;18.45;10.25;;;;;;;;;;5069518;28;20024;-77
2022/11/22 03:49:43;;;;;;;14.45;10.07;;;;;;;;;;5090105;28;20044;-78
2022/11/22 03:52:11;;;;;;;19.27;11.75;;;;;;;;;;5072821;28;20027;-77
2022/11/22 03:54:39;;;;;;;21.23;11.23;;;;;;;;;;5064156;28;20036;-77
2022/11/22 03:57:07;;;;;;;25.27;12.68;;;;;;;;;;5054092;28;20045;-79
2022/11/22 03:59:37;;;;;;;30.13;16.52;;;;;;;;;;5071213;28;20032;-80
2022/11/22 04:02:05;;;;;;;27.98;15.27;;;;;;;;;;5092051;28;20038;-81
2022/11/22 04:04:33;;;;;;;21.25;9.65;;;;;;;;;;5091306;28;20503;-81
2022/11/22 04:06:59;;;;;;;18.38;10.15;;;;;;;;;;5072062;28;20034;-81
2022/11/22 04:09:27;;;;;;;20.15;11.98;;;;;;;;;;5073148;28;20621;-81
2022/11/22 04:11:54;;;;;;;23.33;12.88;;;;;;;;;;5087918;28;20028;-77
2022/11/22 04:17:07;;;;;;;21.90;12.52;;;;;;;;;;5060393;28;20044;-76
2022/11/22 04:19:34;;;;;;;27.67;17.45;;;;;;;;;;5086547;28;20089;-76
2022/11/22 04:22:00;;;;;;;29.95;17.23;;;;;;;;;;5064152;28;20088;-76
2022/11/22 04:27:12;;;;;;;19.13;12.25;;;;;;;;;;5089443;28;20032;-78
2022/11/22 04:29:40;;;;;;;22.73;13.35;;;;;;;;;;5089634;28;20028;-79
2022/11/22 04:34:55;;;;;;;30.23;17.45;;;;;;;;;;5072994;28;20044;-78
2022/11/22 04:37:23;;;;;;;30.05;14.18;;;;;;;;;;5088552;28;20070;-77
2022/11/22 04:39:48;;;;;;;16.38;10.38;;;;;;;;;;5059134;28;20495;-79
2022/11/22 04:45:01;;;;;;;27.35;17.08;;;;;;;;;;5088870;28;20043;-78
2022/11/22 04:53:03;;;;;;;21.50;12.65;;;;;;;;;;5077417;28;20158;-77
2022/11/22 04:55:30;;;;;;;17.75;10.57;;;;;;;;;;5070946;28;20057;-78
2022/11/22 04:57:58;;;;;;;18.65;10.90;;;;;;;;;;5088777;28;20038;-78
2022/11/22 05:00:26;;;;;;;16.17;9.63;;;;;;;;;;5089032;28;20114;-77
2022/11/22 05:02:54;;;;;;;18.10;9.90;;;;;;;;;;5070823;28;20264;-76
2022/11/22 05:05:21;;;;;;;9.60;8.55;;;;;;;;;;5088572;28;20036;-77
2022/11/22 05:07:51;;;;;;;8.48;6.90;;;;;;;;;;5088882;28;20384;-77
2022/11/22 05:10:20;;;;;;;13.43;7.30;;;;;;;;;;5088942;28;20396;-79
2022/11/22 05:12:47;;;;;;;30.80;15.20;;;;;;;;;;5088420;28;20035;-75
2022/11/22 05:15:15;;;;;;;18.00;9.95;;;;;;;;;;5088708;28;20403;-75
2022/11/22 05:17:42;;;;;;;37.05;22.58;;;;;;;;;;5056186;28;20516;-77
2022/11/22 05:20:10;;;;;;;21.38;11.20;;;;;;;;;;5088367;28;20039;-76
2022/11/22 05:25:26;;;;;;;23.85;13.25;;;;;;;;;;5077789;28;20104;-76
2022/11/22 05:27:56;;;;;;;14.10;8.35;;;;;;;;;;5057320;28;20040;-76
2022/11/22 05:30:22;;;;;;;16.58;9.20;;;;;;;;;;5058791;28;20036;-77
2022/11/22 05:32:49;;;;;;;6.65;6.05;;;;;;;;;;5070728;28;20040;-78
2022/11/22 05:35:18;;;;;;;11.82;8.48;;;;;;;;;;5070070;28;20119;-76
2022/11/22 05:37:45;;;;;;;19.67;10.27;;;;;;;;;;5049662;28;20057;-76
2022/11/22 05:40:12;;;;;;;10.30;8.55;;;;;;;;;;5065392;28;20402;-77
2022/11/22 05:42:41;;;;;;;11.73;7.70;;;;;;;;;;5089060;28;20036;-78
2022/11/22 05:45:08;;;;;;;21.65;9.65;;;;;;;;;;5039941;28;20342;-76
2022/11/22 05:47:34;;;;;;;8.57;6.55;;;;;;;;;;5075350;28;20078;-77
2022/11/22 05:50:02;;;;;;;22.20;11.85;;;;;;;;;;5054442;28;20032;-78
2022/11/22 05:52:30;;;;;;;17.58;9.32;;;;;;;;;;5092252;28;20044;-80
2022/11/22 05:54:56;;;;;;;12.90;8.30;;;;;;;;;;5056367;28;20071;-78
2022/11/22 05:57:24;;;;;;;13.52;9.02;;;;;;;;;;5076495;28;21171;-78
2022/11/22 05:59:52;;;;;;;10.48;6.38;;;;;;;;;;5085450;28;20226;-80
2022/11/22 06:02:18;;;;;;;12.15;7.25;;;;;;;;;;5094907;28;20039;-81
2022/11/22 06:04:46;;;;;;;12.30;7.78;;;;;;;;;;5086567;28;20034;-82
2022/11/22 06:07:13;;;;;;;16.08;9.70;;;;;;;;;;5100984;28;20092;-80
2022/11/22 06:09:39;;;;;;;16.52;10.70;;;;;;;;;;5092051;28;20119;-82
2022/11/22 06:12:07;;;;;;;21.88;14.32;;;;;;;;;;5086596;28;20039;-79
2022/11/22 06:14:33;;;;;;;8.48;7.65;;;;;;;;;;5094461;28;20048;-80
2022/11/22 06:17:01;;;;;;;9.77;7.47;;;;;;;;;;5085464;28;20040;-82
2022/11/22 06:19:28;;;;;;;10.32;7.60;;;;;;;;;;5068784;28;20028;-82
2022/11/22 06:21:55;;;;;;;11.70;8.50;;;;;;;;;;5066130;28;20039;-81
2022/11/22 06:24:23;;;;;;;11.70;8.73;;;;;;;;;;5106364;28;20115;-82
2022/11/22 06:26:51;;;;;;;7.07;6.13;;;;;;;;;;5055845;28;20059;-83
2022/11/22 06:29:19;;;;;;;11.30;7.13;;;;;;;;;;5101163;28;20036;-81
2022/11/22 06:31:45;;;;;;;11.82;7.93;;;;;;;;;;5101059;28;20047;-80
2022/11/22 06:34:12;;;;;;;11.70;6.38;;;;;;;;;;5076878;28;20020;-79
2022/11/22 06:36:38;;;;;;;6.53;5.68;;;;;;;;;;5092470;28;20079;-80
2022/11/22 06:39:04;;;;;;;11.73;9.20;;;;;;;;;;5091063;28;20031;-79
2022/11/22 06:41:32;;;;;;;6.88;6.18;;;;;;;;;;5076517;28;20036;-78
2022/11/22 06:43:58;;;;;;;8.30;6.78;;;;;;;;;;5087807;28;20488;-80
2022/11/22 06:46:24;;;;;;;11.23;8.48;;;;;;;;;;5056096;28;20030;-78
2022/11/22 06:48:50;;;;;;;5.32;4.88;;;;;;;;;;5097138;28;20058;-81
2022/11/22 06:51:17;;;;;;;11.43;8.18;;;;;;;;;;5104306;28;20062;-81
2022/11/22 06:53:45;;;;;;;7.63;6.65;;;;;;;;;;5102261;28;20040;-81
2022/11/22 06:56:11;;;;;;;6.45;4.60;;;;;;;;;;5067061;28;20074;-75
2022/11/22 06:58:39;;;;;;;11.43;8.45;;;;;;;;;;5084393;28;20035;-75
2022/11/22 07:01:08;;;;;;;10.52;7.85;;;;;;;;;;5097473;28;20035;-75
2022/11/22 07:03:39;;;;;;;10.77;8.65;;;;;;;;;;5069243;28;20055;-75
2022/11/22 07:06:06;;;;;;;9.00;7.68;;;;;;;;;;5110532;28;20036;-77
2022/11/22 07:08:33;;;;;;;5.43;4.93;;;;;;;;;;5109090;28;20094;-79
2022/11/22 07:11:05;;;;;;;4.70;4.25;;;;;;;;;;5098421;28;20016;-79
2022/11/22 07:13:31;;;;;;;6.60;5.60;;;;;;;;;;5092909;28;20214;-79
2022/11/22 07:15:58;;;;;;;7.35;6.07;;;;;;;;;;5104614;28;20032;-79
2022/11/22 07:18:26;;;;;;;8.80;4.82;;;;;;;;;;5092024;28;20040;-78
2022/11/22 07:20:52;;;;;;;9.82;7.88;;;;;;;;;;5109198;28;20036;-79
2022/11/22 07:23:18;;;;;;;5.78;5.28;;;;;;;;;;5101075;28;20622;-79
2022/11/22 07:25:47;;;;;;;9.85;8.13;;;;;;;;;;5080715;28;20464;-78
2022/11/22 07:28:13;;;;;;;6.07;5.32;;;;;;;;;;5073788;28;20058;-82
2022/11/22 07:30:40;;;;;;;5.13;4.65;;;;;;;;;;5091169;28;20021;-79
2022/11/22 07:33:06;;;;;;;3.80;3.50;;;;;;;;;;5040714;28;20056;-82
2022/11/22 07:35:32;;;;;;;11.05;8.77;;;;;;;;;;5098073;28;20035;-78
2022/11/22 07:37:58;;;;;;;5.68;4.28;;;;;;;;;;5079709;28;20142;-79
2022/11/22 07:40:24;;;;;;;8.85;5.60;;;;;;;;;;5092322;28;20076;-80
2022/11/22 07:42:51;;;;;;;5.22;4.78;;;;;;;;;;5083215;28;20047;-80
2022/11/22 07:45:17;;;;;;;7.65;5.22;;;;;;;;;;5092673;28;20024;-80
2022/11/22 07:47:45;;;;;;;8.90;5.03;;;;;;;;;;5074162;28;20036;-79
2022/11/22 07:50:11;;;;;;;5.68;4.90;;;;;;;;;;5072213;28;20031;-79
2022/11/22 07:52:38;;;;;;;5.10;4.60;;;;;;;;;;5090370;28;20045;-80
2022/11/22 07:55:08;;;;;;;7.95;6.90;;;;;;;;;;5064967;28;20024;-77
2022/11/22 07:57:34;;;;;;;8.38;7.55;;;;;;;;;;5097293;28;20465;-77
2022/11/22 08:00:00;;;;;;;4.53;4.22;;;;;;;;;;5092904;28;20027;-78
2022/11/22 08:02:28;;;;;;;4.43;3.75;;;;;;;;;;5074778;28;20091;-77
2022/11/22 08:04:53;;;;;;;9.77;6.25;;;;;;;;;;5101385;28;20027;-79
2022/11/22 08:07:19;;;;;;;5.43;4.10;;;;;;;;;;5086019;28;20029;-79
2022/11/22 08:09:46;;;;;;;4.13;3.83;;;;;;;;;;5096146;28;20075;-76
2022/11/22 08:12:12;;;;;;;8.68;7.35;;;;;;;;;;5092718;28;20032;-79
2022/11/22 08:14:38;;;;;;;8.07;5.40;;;;;;;;;;5092558;28;20097;-82
2022/11/22 08:17:04;;;;;;;10.90;7.82;;;;;;;;;;5106328;28;20066;-83
2022/11/22 08:19:34;;;;;;;7.07;6.25;;;;;;;;;;5100663;28;20093;-80
2022/11/22 08:22:00;;;;;;;3.72;3.42;;;;;;;;;;5090048;28;20122;-82
2022/11/22 08:24:28;;;;;;;3.60;3.38;;;;;;;;;;5059770;28;20060;-80
2022/11/22 08:26:56;;;;;;;4.55;4.00;;;;;;;;;;5066898;28;20039;-82
2022/11/22 08:29:22;;;;;;;3.55;3.20;;;;;;;;;;5095844;28;20044;-80
2022/11/22 08:31:50;;;;;;;5.50;4.85;;;;;;;;;;5114948;28;20036;-81
2022/11/22 08:34:19;;;;;;;4.38;3.97;;;;;;;;;;5091080;28;20087;-80
2022/11/22 08:36:46;;;;;;;5.47;4.72;;;;;;;;;;5111499;28;20052;-79
2022/11/22 08:39:14;;;;;;;6.55;5.95;;;;;;;;;;5115653;28;20392;-80
2022/11/22 08:41:41;;;;;;;5.72;5.25;;;;;;;;;;5087511;28;20046;-81
2022/11/22 08:44:07;;;;;;;4.95;4.55;;;;;;;;;;5118749;28;20005;-82
2022/11/22 08:46:33;;;;;;;3.67;3.38;;;;;;;;;;5097710;28;20048;-84
2022/11/22 08:49:02;;;;;;;3.17;2.95;;;;;;;;;;5095500;28;20054;-79
2022/11/22 08:54:47;;;;;;;4.68;4.22;;;;;;;;;;5100857;28;20046;-81
2022/11/22 08:57:13;;;;;;;5.65;4.97;;;;;;;;;;5090581;28;20248;-81
2022/11/22 08:59:39;;;;;;;3.75;3.50;;;;;;;;;;5084441;28;20028;-80
2022/11/22 09:02:08;;;;;;;4.55;4.20;;;;;;;;;;5075971;28;20033;-76
2022/11/22 09:04:36;;;;;;;3.65;3.35;;;;;;;;;;5081860;28;20039;-77
2022/11/22 09:07:03;;;;;;;8.38;7.65;;;;;;;;;;5058196;28;20020;-77
2022/11/22 09:09:33;;;;;;;5.10;4.00;;;;;;;;;;5071149;28;20459;-76
2022/11/22 09:12:00;;;;;;;7.38;5.28;;;;;;;;;;5097513;28;20040;-76
2022/11/22 09:14:26;;;;;;;7.95;7.35;;;;;;;;;;5095845;28;20028;-76
2022/11/22 09:16:53;;;;;;;6.35;4.72;;;;;;;;;;5072757;28;20059;-76
2022/11/22 09:19:20;;;;;;;4.25;3.97;;;;;;;;;;5072983;28;20056;-77
2022/11/22 09:21:47;;;;;;;9.80;7.28;;;;;;;;;;5095131;28;20401;-78
2022/11/22 09:24:18;;;;;;;4.57;4.18;;;;;;;;;;5090912;28;20567;-79
2022/11/22 09:26:45;;;;;;;6.63;5.53;;;;;;;;;;5077742;28;20036;-78
2022/11/22 09:29:14;;;;;;;6.32;5.63;;;;;;;;;;5085655;28;20031;-77
2022/11/22 09:31:40;;;;;;;3.78;3.47;;;;;;;;;;5091771;28;20039;-77
2022/11/22 09:34:09;;;;;;;3.67;3.30;;;;;;;;;;5068664;28;20055;-77
2022/11/22 09:36:35;;;;;;;7.47;4.25;;;;;;;;;;5080871;28;20048;-77
2022/11/22 09:39:02;;;;;;;5.65;5.15;;;;;;;;;;5088648;28;20176;-77
2022/11/22 09:41:28;;;;;;;5.03;4.50;;;;;;;;;;5092248;28;20053;-77
2022/11/22 09:44:03;;;;;;;2.90;2.70;;;;;;;;;;5090571;28;20035;-80
2022/11/22 09:46:34;;;;;;;4.72;4.40;;;;;;;;;;5072926;28;20027;-78
2022/11/22 09:49:01;;;;;;;4.70;4.30;;;;;;;;;;5094904;28;20036;-76
2022/11/22 09:51:30;;;;;;;4.85;4.45;;;;;;;;;;5076810;28;20031;-77
2022/11/22 09:53:59;;;;;;;7.93;7.13;;;;;;;;;;5071697;28;20027;-77
2022/11/22 09:56:26;;;;;;;6.72;6.13;;;;;;;;;;5071468;28;20043;-78
2022/11/22 09:58:57;;;;;;;4.53;4.15;;;;;;;;;;5090096;28;20039;-77
2022/11/22 10:01:33;;;;;;;6.57;4.97;;;;;;;;;;5090608;28;20478;-78
2022/11/22 10:04:02;;;;;;;2.92;2.72;;;;;;;;;;5055713;28;20031;-78
2022/11/22 10:06:43;;;;;;;4.68;4.35;;;;;;;;;;5076983;28;20031;-77
2022/11/22 10:09:15;;;;;;;5.85;3.67;;;;;;;;;;5095647;28;20036;-77
2022/11/22 10:11:44;;;;;;;5.90;5.43;;;;;;;;;;5092046;28;20296;-77
2022/11/22 10:14:30;;;;;;;2.78;2.67;;;;;;;;;;5093162;28;20400;-78
2022/11/22 10:17:02;;;;;;;2.85;2.70;;;;;;;;;;5092140;28;20072;-78
2022/11/22 10:19:30;;;;;;;2.95;2.75;;;;;;;;;;5067974;28;20051;-78
2022/11/22 10:21:58;;;;;;;4.05;3.75;;;;;;;;;;5078743;28;20063;-78
2022/11/22 10:24:26;;;;;;;4.50;4.10;;;;;;;;;;5081584;28;20104;-78
2022/11/22 10:26:55;;;;;;;4.18;3.78;;;;;;;;;;5096658;28;20035;-78
2022/11/22 10:29:41;;;;;;;2.88;2.75;;;;;;;;;;5092467;28;20035;-77
2022/11/22 10:32:20;;;;;;;3.33;3.13;;;;;;;;;;5087985;28;20503;-77
2022/11/22 10:34:52;;;;;;;2.50;2.40;;;;;;;;;;5049924;28;20093;-76
2022/11/22 10:37:27;;;;;;;3.03;2.83;;;;;;;;;;5079435;28;20535;-75
2022/11/22 10:39:56;;;;;;;4.20;3.05;;;;;;;;;;5099258;28;20032;-75
2022/11/22 10:42:27;;;;;;;3.45;3.15;;;;;;;;;;5104243;28;20088;-74
2022/11/22 10:45:14;;;;;;;5.45;5.05;;;;;;;;;;5098146;28;20040;-74
2022/11/22 10:47:44;;;;;;;3.33;2.90;;;;;;;;;;5076961;28;20036;-76
2022/11/22 10:50:12;;;;;;;3.58;3.08;;;;;;;;;;5096430;28;20028;-75
2022/11/22 10:52:48;;;;;;;2.38;2.20;;;;;;;;;;5082298;28;20027;-76
2022/11/22 10:55:21;;;;;;;6.40;3.33;;;;;;;;;;5088733;28;20032;-75
2022/11/22 10:57:56;;;;;;;4.13;3.80;;;;;;;;;;5062257;28;20045;-75
2022/11/22 11:00:27;;;;;;;5.82;5.40;;;;;;;;;;5089713;28;20108;-75
2022/11/22 11:03:13;;;;;;;3.65;3.35;;;;;;;;;;5098911;28;20024;-74
2022/11/22 11:06:13;;;;;;;3.50;3.20;;;;;;;;;;5081127;28;20470;-74
2022/11/22 11:08:50;;;;;;;5.50;5.07;;;;;;;;;;4992478;28;20053;-74
2022/11/22 11:11:20;;;;;;;7.10;6.50;;;;;;;;;;4989015;28;20043;-75
2022/11/22 11:13:49;;;;;;;8.25;7.30;;;;;;;;;;4990498;28;20039;-75
2022/11/22 11:16:18;;;;;;;3.90;3.50;;;;;;;;;;4989795;28;20506;-74
2022/11/22 11:18:47;;;;;;;3.55;3.22;;;;;;;;;;4957026;28;20046;-74
2022/11/22 11:21:15;;;;;;;5.03;4.70;;;;;;;;;;4972883;28;20046;-75
2022/11/22 11:23:43;;;;;;;4.93;4.53;;;;;;;;;;4973865;28;20278;-75
2022/11/22 11:26:19;;;;;;;5.07;4.60;;;;;;;;;;4978567;28;20041;-76
2022/11/22 11:28:46;;;;;;;3.17;2.97;;;;;;;;;;4992905;28;20258;-75
2022/11/22 11:31:17;;;;;;;5.70;5.22;;;;;;;;;;4992489;28;20049;-75
2022/11/22 11:33:44;;;;;;;3.47;3.28;;;;;;;;;;4965958;28;20125;-75
2022/11/22 11:36:22;;;;;;;3.95;3.75;;;;;;;;;;4971201;28;20456;-74
2022/11/22 11:38:53;;;;;;;3.67;3.47;;;;;;;;;;4988743;28;20039;-74
2022/11/22 11:41:21;;;;;;;6.00;5.55;;;;;;;;;;4973947;28;20041;-74
2022/11/22 11:43:50;;;;;;;6.88;5.88;;;;;;;;;;5000886;28;20504;-74
2022/11/22 11:46:18;;;;;;;5.10;4.70;;;;;;;;;;5072950;28;20043;-74
2022/11/22 11:48:46;;;;;;;3.75;3.55;;;;;;;;;;5054905;28;20437;-74
2022/11/22 11:51:13;;;;;;;6.75;5.32;;;;;;;;;;5072036;28;20127;-73
2022/11/22 11:53:41;;;;;;;4.65;4.35;;;;;;;;;;5071128;28;20127;-74
2022/11/22 11:56:20;;;;;;;4.13;3.85;;;;;;;;;;5052559;28;20040;-73
2022/11/22 11:58:55;;;;;;;5.70;5.20;;;;;;;;;;5036476;28;20062;-75
2022/11/22 12:01:24;;;;;;;5.20;4.63;;;;;;;;;;5072543;28;20044;-73
2022/11/22 12:03:53;;;;;;;9.43;5.32;;;;;;;;;;5053141;28;20416;-74
2022/11/22 12:06:23;;;;;;;12.75;7.07;;;;;;;;;;5071284;28;20127;-74
2022/11/22 12:08:51;;;;;;;4.10;3.80;;;;;;;;;;5073562;28;20039;-74
2022/11/22 12:11:20;;;;;;;7.38;6.68;;;;;;;;;;5091272;28;20093;-74
2022/11/22 12:13:49;;;;;;;5.80;5.35;;;;;;;;;;5073802;28;20032;-74
2022/11/22 12:16:20;;;;;;;6.85;3.67;;;;;;;;;;5091479;28;20101;-74
2022/11/22 12:18:55;;;;;;;3.55;3.28;;;;;;;;;;5073435;28;20127;-74
2022/11/22 12:21:22;;;;;;;2.17;2.08;;;;;;;;;;5091295;28;20089;-75
2022/11/22 12:24:02;;;;;;;8.00;4.68;;;;;;;;;;5072604;28;20063;-74
2022/11/22 12:26:30;;;;;;;4.07;3.67;;;;;;;;;;5071993;28;20047;-74
2022/11/22 12:28:58;;;;;;;3.08;2.88;;;;;;;;;;5073045;28;20097;-73
2022/11/22 12:31:25;;;;;;;2.97;2.78;;;;;;;;;;5093373;28;20109;-74
2022/11/22 12:33:54;;;;;;;3.53;3.20;;;;;;;;;;5092163;28;20032;-73
2022/11/22 12:36:33;;;;;;;5.32;4.90;;;;;;;;;;5091415;28;20048;-73
2022/11/22 12:39:03;;;;;;;3.85;2.13;;;;;;;;;;5074879;28;20070;-75
2022/11/22 12:41:31;;;;;;;4.30;4.03;;;;;;;;;;5069059;28;20645;-75
2022/11/22 12:44:00;;;;;;;5.88;5.38;;;;;;;;;;5072748;28;20507;-74
2022/11/22 12:46:31;;;;;;;8.98;8.27;;;;;;;;;;5054323;28;20140;-74
2022/11/22 12:48:58;;;;;;;6.63;6.03;;;;;;;;;;5081826;28;20487;-74
2022/11/22 12:51:29;;;;;;;5.43;4.97;;;;;;;;;;5083168;28;20130;-74
2022/11/22 12:53:59;;;;;;;3.97;3.65;;;;;;;;;;5087340;28;20059;-75
2022/11/22 12:56:28;;;;;;;5.03;4.53;;;;;;;;;;5091938;28;20459;-74
2022/11/22 12:59:09;;;;;;;6.03;5.43;;;;;;;;;;5068212;28;20031;-76
2022/11/22 13:01:38;;;;;;;6.90;6.20;;;;;;;;;;5092896;28;20519;-77
2022/11/22 13:04:25;;;;;;;3.92;3.63;;;;;;;;;;5095723;28;20036;-76
2022/11/22 13:06:54;;;;;;;6.57;5.97;;;;;;;;;;5069671;28;20035;-78
2022/11/22 13:09:25;;;;;;;3.10;2.92;;;;;;;;;;5074889;28;20038;-78
2022/11/22 13:11:54;;;;;;;2.90;2.80;;;;;;;;;;5076300;28;20036;-77
2022/11/22 13:14:27;;;;;;;5.93;4.50;;;;;;;;;;5072146;28;20020;-76
2022/11/22 13:16:53;;;;;;;4.22;3.92;;;;;;;;;;5083109;28;20055;-76
2022/11/22 13:19:20;;;;;;;4.43;3.95;;;;;;;;;;5046211;28;20039;-78
2022/11/22 13:22:01;;;;;;;5.95;5.53;;;;;;;;;;5068341;28;20046;-75
2022/11/22 13:24:30;;;;;;;4.97;4.65;;;;;;;;;;5059469;28;20098;-73
2022/11/22 13:26:56;;;;;;;7.28;4.28;;;;;;;;;;5081895;28;20032;-75
2022/11/22 13:29:26;;;;;;;9.25;5.68;;;;;;;;;;5067029;28;20103;-76
2022/11/22 13:32:04;;;;;;;5.38;4.88;;;;;;;;;;5099220;28;20613;-76
2022/11/22 13:34:32;;;;;;;4.15;3.13;;;;;;;;;;5080776;28;20512;-75
2022/11/22 13:37:12;;;;;;;4.32;3.58;;;;;;;;;;5089154;28;20059;-77
2022/11/22 13:39:44;;;;;;;4.32;3.92;;;;;;;;;;5095209;28;20040;-76
2022/11/22 13:42:31;;;;;;;8.32;7.53;;;;;;;;;;5093860;28;20539;-76
2022/11/22 13:45:01;;;;;;;6.57;5.72;;;;;;;;;;5089073;28;20020;-76
2022/11/22 13:47:36;;;;;;;5.28;4.28;;;;;;;;;;5086826;28;20055;-79
2022/11/22 13:50:01;;;;;;;6.65;5.97;;;;;;;;;;5082693;28;20063;-77
2022/11/22 13:52:29;;;;;;;4.15;3.85;;;;;;;;;;5074165;28;20052;-76
2022/11/22 13:54:55;;;;;;;6.07;5.57;;;;;;;;;;5077046;28;20055;-77
2022/11/22 13:57:29;;;;;;;6.63;6.15;;;;;;;;;;5093364;28;20512;-76
2022/11/22 14:02:48;;;;;;;6.78;5.70;;;;;;;;;;5071662;28;20045;-74
2022/11/22 14:05:19;;;;;;;6.88;5.28;;;;;;;;;;5084093;28;20036;-74
2022/11/22 14:07:50;;;;;;;6.18;5.72;;;;;;;;;;5085618;28;20124;-74
2022/11/22 14:10:56;;;;;;;6.47;5.85;;;;;;;;;;5057337;28;20032;-73
2022/11/22 14:13:46;;;;;;;3.13;2.92;;;;;;;;;;5091747;28;20127;-75
2022/11/22 14:16:16;;;;;;;4.50;4.20;;;;;;;;;;5096213;28;20051;-76
2022/11/22 14:19:01;;;;;;;5.90;5.40;;;;;;;;;;5094826;28;20035;-76
2022/11/22 14:21:47;;;;;;;5.32;4.93;;;;;;;;;;5092727;28;20036;-76
2022/11/22 14:24:17;;;;;;;5.20;4.80;;;;;;;;;;5093437;28;20028;-76
2022/11/22 14:26:43;;;;;;;4.53;4.15;;;;;;;;;;5092273;28;20047;-75
2022/11/22 14:29:28;;;;;;;3.97;3.67;;;;;;;;;;5062092;28;20039;-75
2022/11/22 14:32:01;;;;;;;7.72;6.60;;;;;;;;;;5078643;28;20062;-77
2022/11/22 14:34:29;;;;;;;4.00;3.70;;;;;;;;;;5072332;28;20044;-76
2022/11/22 14:37:16;;;;;;;6.85;6.25;;;;;;;;;;5088357;28;20152;-73
2022/11/22 14:39:43;;;;;;;4.68;3.88;;;;;;;;;;5089189;28;20751;-74
2022/11/22 14:42:28;;;;;;;7.05;5.53;;;;;;;;;;5072906;28;20024;-74
2022/11/22 14:44:57;;;;;;;5.57;4.93;;;;;;;;;;5088308;28;20097;-73
2022/11/22 14:47:23;;;;;;;11.85;6.57;;;;;;;;;;5085690;28;20032;-73
2022/11/22 14:49:49;;;;;;;9.38;8.45;;;;;;;;;;5074101;28;20088;-73
2022/11/22 14:52:19;;;;;;;8.20;7.28;;;;;;;;;;5074556;28;20825;-74
2022/11/22 14:54:47;;;;;;;6.30;5.70;;;;;;;;;;5071323;28;20507;-72
2022/11/22 14:57:18;;;;;;;11.07;9.45;;;;;;;;;;5057254;28;20048;-74
2022/11/22 14:59:50;;;;;;;4.32;4.03;;;;;;;;;;5055568;28;20427;-73
2022/11/22 15:02:16;;;;;;;7.20;5.57;;;;;;;;;;5079853;28;20047;-73
2022/11/22 15:04:47;;;;;;;7.07;5.15;;;;;;;;;;5064814;28;20032;-73
2022/11/22 15:07:31;;;;;;;14.93;12.00;;;;;;;;;;5084424;28;20204;-72
2022/11/22 15:10:05;;;;;;;7.82;7.05;;;;;;;;;;5090795;28;20032;-74